Time;durP1;ratioP1;P1;durP2;ratioP2;P2;SDS_P1;SDS_P2;PMS_P1;PMS_P2;Temp;Humidity;BMP_temperature;BMP_pressure;BME280_temperature;BME280_humidity;BME280_pressure;Samples;Min_cycle;Max_cycle;Signal;HPM_P1;HPM_P2
2022/10/18 00:02:15;;;;;;;79.43;19.33;;;;;;;;;;4968360;28;20089;-79
2022/10/18 00:04:41;;;;;;;112.88;21.02;;;;;;;;;;4971530;28;20092;-78
2022/10/18 00:07:07;;;;;;;131.75;22.52;;;;;;;;;;4966355;28;20047;-78
2022/10/18 00:09:33;;;;;;;123.70;20.38;;;;;;;;;;4954112;29;20058;-78
2022/10/18 00:11:59;;;;;;;100.93;20.48;;;;;;;;;;4954367;29;20116;-78
2022/10/18 00:14:25;;;;;;;115.40;21.65;;;;;;;;;;4953980;29;20409;-78
2022/10/18 00:16:51;;;;;;;93.78;19.27;;;;;;;;;;4954014;29;20494;-78
2022/10/18 00:19:17;;;;;;;87.57;18.55;;;;;;;;;;4971779;28;20043;-78
2022/10/18 00:21:43;;;;;;;106.93;20.35;;;;;;;;;;4973562;28;20043;-78
2022/10/18 00:24:09;;;;;;;130.25;22.48;;;;;;;;;;4972990;28;20121;-78
2022/10/18 00:26:35;;;;;;;107.38;20.55;;;;;;;;;;4956779;28;20054;-77
2022/10/18 00:29:03;;;;;;;94.75;20.95;;;;;;;;;;4971979;28;20046;-78
2022/10/18 00:31:34;;;;;;;123.60;21.20;;;;;;;;;;4973334;28;20494;-78
2022/10/18 00:34:02;;;;;;;83.03;18.67;;;;;;;;;;4973428;28;20043;-78
2022/10/18 00:36:28;;;;;;;134.60;22.80;;;;;;;;;;4973287;28;20043;-78
2022/10/18 00:38:55;;;;;;;113.18;21.00;;;;;;;;;;4973105;28;20043;-78
2022/10/18 00:41:22;;;;;;;176.60;24.75;;;;;;;;;;4972789;28;20047;-78
2022/10/18 00:44:01;;;;;;;148.07;24.58;;;;;;;;;;4973346;28;20054;-78
2022/10/18 00:46:28;;;;;;;127.40;22.10;;;;;;;;;;4960000;28;20455;-78
2022/10/18 00:48:55;;;;;;;79.07;19.67;;;;;;;;;;4953772;29;20495;-78
2022/10/18 00:51:22;;;;;;;105.97;21.38;;;;;;;;;;4957774;28;20442;-78
2022/10/18 00:53:48;;;;;;;83.32;19.05;;;;;;;;;;4973019;28;20046;-78
2022/10/18 00:56:15;;;;;;;123.30;21.88;;;;;;;;;;4972893;28;20042;-78
2022/10/18 00:58:41;;;;;;;125.60;20.75;;;;;;;;;;4972540;28;20466;-78
2022/10/18 01:01:08;;;;;;;103.65;20.77;;;;;;;;;;4972676;28;20079;-78
2022/10/18 01:03:34;;;;;;;76.22;19.50;;;;;;;;;;4965785;28;20122;-78
2022/10/18 01:06:00;;;;;;;78.13;16.70;;;;;;;;;;4953565;28;20050;-78
2022/10/18 01:08:32;;;;;;;83.72;18.55;;;;;;;;;;4960808;28;20043;-78
2022/10/18 01:11:01;;;;;;;58.83;15.40;;;;;;;;;;4953323;29;20051;-78
2022/10/18 01:13:54;;;;;;;66.20;15.85;;;;;;;;;;4953009;28;20086;-78
2022/10/18 01:16:23;;;;;;;76.78;17.08;;;;;;;;;;4966598;28;20054;-78
2022/10/18 01:19:08;;;;;;;111.28;19.35;;;;;;;;;;4970151;28;20046;-78
2022/10/18 01:21:43;;;;;;;101.93;17.88;;;;;;;;;;4952944;28;20474;-78
2022/10/18 01:24:14;;;;;;;85.72;17.00;;;;;;;;;;4959894;28;20047;-78
2022/10/18 01:26:55;;;;;;;118.03;19.42;;;;;;;;;;4972550;28;20115;-78
2022/10/18 01:29:24;;;;;;;128.70;21.13;;;;;;;;;;4968109;28;20047;-78
2022/10/18 01:31:59;;;;;;;83.15;18.92;;;;;;;;;;4953077;28;20043;-78
2022/10/18 01:34:27;;;;;;;79.97;17.92;;;;;;;;;;4955015;28;20070;-78
2022/10/18 01:36:55;;;;;;;45.20;14.82;;;;;;;;;;4972318;28;20092;-78
2022/10/18 01:39:23;;;;;;;43.00;13.73;;;;;;;;;;4971056;28;20069;-78
2022/10/18 01:41:50;;;;;;;33.03;13.00;;;;;;;;;;4952881;29;20039;-78
2022/10/18 01:44:18;;;;;;;42.45;14.68;;;;;;;;;;4952547;28;20169;-78
2022/10/18 01:46:45;;;;;;;40.33;13.27;;;;;;;;;;4952395;29;20050;-78
2022/10/18 01:49:11;;;;;;;48.05;14.27;;;;;;;;;;4953051;28;20100;-78
2022/10/18 01:51:37;;;;;;;29.70;12.32;;;;;;;;;;4953622;28;20043;-78
2022/10/18 01:54:03;;;;;;;46.45;14.73;;;;;;;;;;4963769;28;20096;-78
2022/10/18 01:56:29;;;;;;;40.97;13.73;;;;;;;;;;4952312;28;20491;-78
2022/10/18 01:58:55;;;;;;;43.88;13.90;;;;;;;;;;4936042;28;20054;-77
2022/10/18 02:01:30;;;;;;;41.88;12.75;;;;;;;;;;4960674;28;20046;-78
2022/10/18 02:04:01;;;;;;;38.80;12.80;;;;;;;;;;4971993;28;20043;-78
2022/10/18 02:06:31;;;;;;;37.42;13.13;;;;;;;;;;4962245;28;20406;-78
2022/10/18 02:08:59;;;;;;;32.25;12.73;;;;;;;;;;4952376;29;20498;-78
2022/10/18 02:11:26;;;;;;;28.52;12.35;;;;;;;;;;4952415;28;20043;-78
2022/10/18 02:13:58;;;;;;;26.25;12.10;;;;;;;;;;4952478;28;20125;-78
2022/10/18 02:16:24;;;;;;;24.48;12.43;;;;;;;;;;4952581;28;20047;-78
2022/10/18 02:18:58;;;;;;;29.23;13.48;;;;;;;;;;4951850;28;20134;-78
2022/10/18 02:21:25;;;;;;;30.58;12.38;;;;;;;;;;4957167;28;20173;-78
2022/10/18 02:23:51;;;;;;;31.45;12.25;;;;;;;;;;4971249;28;20047;-78
2022/10/18 02:26:18;;;;;;;42.20;14.23;;;;;;;;;;4969188;28;20090;-77
2022/10/18 02:28:44;;;;;;;31.45;12.80;;;;;;;;;;4960101;29;20130;-78
2022/10/18 02:31:19;;;;;;;34.88;11.70;;;;;;;;;;4974098;28;20047;-78
2022/10/18 02:34:04;;;;;;;42.95;12.18;;;;;;;;;;4955612;29;20047;-78
2022/10/18 02:36:38;;;;;;;27.35;11.95;;;;;;;;;;4952393;29;20059;-78
2022/10/18 02:39:07;;;;;;;24.48;11.35;;;;;;;;;;4952052;29;20494;-78
2022/10/18 02:41:33;;;;;;;33.22;12.30;;;;;;;;;;4960599;28;20081;-78
2022/10/18 02:43:59;;;;;;;29.02;11.93;;;;;;;;;;4971845;28;20047;-78
2022/10/18 02:46:25;;;;;;;26.95;12.43;;;;;;;;;;4971529;28;20049;-78
2022/10/18 02:48:51;;;;;;;21.58;11.43;;;;;;;;;;4971741;28;20490;-78
2022/10/18 02:51:17;;;;;;;20.60;12.32;;;;;;;;;;4955064;28;20047;-78
2022/10/18 02:53:43;;;;;;;23.20;12.23;;;;;;;;;;4952149;28;20046;-78
2022/10/18 02:56:09;;;;;;;22.52;11.70;;;;;;;;;;4952424;28;20056;-78
2022/10/18 02:58:36;;;;;;;26.67;11.90;;;;;;;;;;4952069;28;20126;-78
2022/10/18 03:01:02;;;;;;;22.55;11.90;;;;;;;;;;4961338;28;20126;-77
2022/10/18 03:03:28;;;;;;;50.58;14.25;;;;;;;;;;4957566;28;20095;-78
2022/10/18 03:05:54;;;;;;;60.85;15.23;;;;;;;;;;4961449;28;20508;-78
2022/10/18 03:08:21;;;;;;;76.90;13.82;;;;;;;;;;4951935;29;20047;-78
2022/10/18 03:10:47;;;;;;;30.58;11.88;;;;;;;;;;4958353;28;20498;-78
2022/10/18 03:13:13;;;;;;;27.73;11.75;;;;;;;;;;4951462;28;20050;-78
2022/10/18 03:15:39;;;;;;;22.95;11.68;;;;;;;;;;4952212;28;20051;-78
2022/10/18 03:18:05;;;;;;;18.85;10.73;;;;;;;;;;4950290;29;20130;-78
2022/10/18 03:20:32;;;;;;;21.75;11.60;;;;;;;;;;4952160;28;20048;-78
2022/10/18 03:22:58;;;;;;;23.63;11.48;;;;;;;;;;4951859;28;20043;-78
2022/10/18 03:25:24;;;;;;;23.25;11.27;;;;;;;;;;4951410;29;20070;-78
2022/10/18 03:27:50;;;;;;;22.65;10.85;;;;;;;;;;4951514;29;20134;-78
2022/10/18 03:30:16;;;;;;;21.15;10.70;;;;;;;;;;4951656;29;20090;-78
2022/10/18 03:32:42;;;;;;;21.73;10.80;;;;;;;;;;4954225;29;20051;-78
2022/10/18 03:35:09;;;;;;;21.15;10.68;;;;;;;;;;4958410;28;20043;-78
2022/10/18 03:37:35;;;;;;;23.45;10.60;;;;;;;;;;4974130;28;20085;-78
2022/10/18 03:40:02;;;;;;;21.30;10.18;;;;;;;;;;4973474;28;20055;-78
2022/10/18 03:42:28;;;;;;;22.67;9.95;;;;;;;;;;4954917;28;20044;-78
2022/10/18 03:44:54;;;;;;;21.45;9.90;;;;;;;;;;4954749;28;20086;-78
2022/10/18 03:47:20;;;;;;;20.40;10.25;;;;;;;;;;4955735;28;20043;-78
2022/10/18 03:49:46;;;;;;;23.38;10.55;;;;;;;;;;4963871;28;20046;-78
2022/10/18 03:52:12;;;;;;;22.70;10.73;;;;;;;;;;4974095;28;20112;-78
2022/10/18 03:54:38;;;;;;;21.10;10.60;;;;;;;;;;4948404;28;20448;-78
2022/10/18 03:57:04;;;;;;;25.25;10.68;;;;;;;;;;4962666;28;20047;-77
2022/10/18 03:59:30;;;;;;;20.20;10.38;;;;;;;;;;4963889;28;20086;-77
2022/10/18 04:01:56;;;;;;;17.55;9.70;;;;;;;;;;4973764;28;20093;-77
2022/10/18 04:04:22;;;;;;;20.60;10.32;;;;;;;;;;4972577;28;20055;-78
2022/10/18 04:06:48;;;;;;;18.83;10.15;;;;;;;;;;4954073;29;20441;-77
2022/10/18 04:09:14;;;;;;;23.50;10.68;;;;;;;;;;4954008;28;20560;-77
2022/10/18 04:11:40;;;;;;;19.40;9.85;;;;;;;;;;4952806;29;20054;-77
2022/10/18 04:14:06;;;;;;;17.95;9.20;;;;;;;;;;4968396;28;20046;-77
2022/10/18 04:16:32;;;;;;;19.20;10.63;;;;;;;;;;4955917;28;20043;-78
2022/10/18 04:18:58;;;;;;;21.55;9.80;;;;;;;;;;4954910;28;20116;-77
2022/10/18 04:21:24;;;;;;;17.75;9.65;;;;;;;;;;4954319;28;20122;-77
2022/10/18 04:23:50;;;;;;;25.73;9.52;;;;;;;;;;4954621;28;20043;-77
2022/10/18 04:26:17;;;;;;;19.67;9.02;;;;;;;;;;4953518;28;20440;-77
2022/10/18 04:28:43;;;;;;;16.05;9.00;;;;;;;;;;4954036;29;20059;-77
2022/10/18 04:31:09;;;;;;;17.95;8.85;;;;;;;;;;4959083;28;20058;-78
2022/10/18 04:33:38;;;;;;;19.88;8.70;;;;;;;;;;4954102;28;20050;-77
2022/10/18 04:36:04;;;;;;;18.65;8.77;;;;;;;;;;4954014;28;20066;-77
2022/10/18 04:38:30;;;;;;;20.35;8.55;;;;;;;;;;4952703;28;20105;-77
2022/10/18 04:40:56;;;;;;;14.75;8.00;;;;;;;;;;4958220;28;20054;-77
2022/10/18 04:43:22;;;;;;;17.83;8.20;;;;;;;;;;4953411;28;20047;-78
2022/10/18 04:45:49;;;;;;;16.25;8.60;;;;;;;;;;4954903;28;20109;-77
2022/10/18 04:48:16;;;;;;;19.48;7.90;;;;;;;;;;4973172;28;20584;-77
2022/10/18 04:50:42;;;;;;;16.52;7.90;;;;;;;;;;4964938;28;20035;-77
2022/10/18 04:53:08;;;;;;;16.35;7.97;;;;;;;;;;4953675;29;20490;-77
2022/10/18 04:55:34;;;;;;;20.00;8.35;;;;;;;;;;4953432;29;20052;-77
2022/10/18 04:58:00;;;;;;;14.82;8.45;;;;;;;;;;4953428;29;20051;-77
2022/10/18 05:00:26;;;;;;;16.85;8.20;;;;;;;;;;4953731;28;20130;-77
2022/10/18 05:02:56;;;;;;;27.70;8.88;;;;;;;;;;4953558;28;20050;-77
2022/10/18 05:05:23;;;;;;;18.15;8.60;;;;;;;;;;4953609;28;20043;-77
2022/10/18 05:07:49;;;;;;;16.17;8.20;;;;;;;;;;4953599;28;20078;-77
2022/10/18 05:10:15;;;;;;;14.15;8.82;;;;;;;;;;4953707;28;20039;-77
2022/10/18 05:12:42;;;;;;;17.23;8.48;;;;;;;;;;4953403;29;20521;-77
2022/10/18 05:15:09;;;;;;;18.05;9.15;;;;;;;;;;4951837;28;20056;-77
2022/10/18 05:17:35;;;;;;;14.90;8.25;;;;;;;;;;4955647;28;20061;-81
2022/10/18 05:20:01;;;;;;;16.13;9.00;;;;;;;;;;4964101;28;20047;-78
2022/10/18 05:22:27;;;;;;;17.80;8.02;;;;;;;;;;4953167;28;20050;-77
2022/10/18 05:24:53;;;;;;;15.80;8.50;;;;;;;;;;4959438;28;20054;-77
2022/10/18 05:27:19;;;;;;;13.75;7.75;;;;;;;;;;4970640;28;20056;-77
2022/10/18 05:29:45;;;;;;;10.50;7.07;;;;;;;;;;4956683;28;20045;-77
2022/10/18 05:32:11;;;;;;;15.85;7.38;;;;;;;;;;4953374;28;20043;-77
2022/10/18 05:34:37;;;;;;;18.58;8.27;;;;;;;;;;4951959;28;20056;-77
2022/10/18 05:37:03;;;;;;;12.40;6.82;;;;;;;;;;4959661;28;20054;-77
2022/10/18 05:39:29;;;;;;;14.30;7.50;;;;;;;;;;4968497;28;20514;-77
2022/10/18 05:41:56;;;;;;;15.05;6.85;;;;;;;;;;4952872;28;20050;-77
2022/10/18 05:44:23;;;;;;;15.98;7.88;;;;;;;;;;4953340;28;20113;-77
2022/10/18 05:46:49;;;;;;;15.25;8.13;;;;;;;;;;4972147;28;20057;-77
2022/10/18 05:49:15;;;;;;;13.43;7.68;;;;;;;;;;4972109;28;20039;-81
2022/10/18 05:51:41;;;;;;;14.88;7.80;;;;;;;;;;4956956;28;20446;-82
2022/10/18 05:54:07;;;;;;;14.82;7.85;;;;;;;;;;4957391;29;20157;-76
2022/10/18 05:56:33;;;;;;;15.50;7.97;;;;;;;;;;4958105;29;20039;-76
2022/10/18 05:58:59;;;;;;;14.13;6.75;;;;;;;;;;4957772;28;20161;-79
2022/10/18 06:01:25;;;;;;;15.32;6.85;;;;;;;;;;4972052;28;20042;-77
2022/10/18 06:03:51;;;;;;;12.88;6.90;;;;;;;;;;4965749;28;20039;-77
2022/10/18 06:06:17;;;;;;;14.25;7.00;;;;;;;;;;4952832;28;20082;-78
2022/10/18 06:08:43;;;;;;;13.55;7.32;;;;;;;;;;4959504;28;20076;-76
2022/10/18 06:11:11;;;;;;;12.85;6.72;;;;;;;;;;4952740;28;20522;-78
2022/10/18 06:13:47;;;;;;;16.02;7.72;;;;;;;;;;4953409;28;20043;-80
2022/10/18 06:16:14;;;;;;;15.07;7.25;;;;;;;;;;4954084;28;20071;-78
2022/10/18 06:18:40;;;;;;;13.48;6.55;;;;;;;;;;4952667;28;20044;-78
2022/10/18 06:21:07;;;;;;;17.02;7.22;;;;;;;;;;4952826;28;20045;-79
2022/10/18 06:23:33;;;;;;;13.77;6.95;;;;;;;;;;4953197;28;20048;-79
2022/10/18 06:26:03;;;;;;;13.43;6.47;;;;;;;;;;4952263;28;20130;-79
2022/10/18 06:28:29;;;;;;;17.67;7.82;;;;;;;;;;4952451;29;20055;-79
2022/10/18 06:30:56;;;;;;;13.65;7.47;;;;;;;;;;4952353;29;20093;-79
2022/10/18 06:33:22;;;;;;;11.00;5.82;;;;;;;;;;4952626;29;20047;-79
2022/10/18 06:35:55;;;;;;;12.32;5.95;;;;;;;;;;4952714;29;20051;-79
2022/10/18 06:38:21;;;;;;;16.40;6.68;;;;;;;;;;4952726;28;20517;-78
2022/10/18 06:40:48;;;;;;;13.05;6.50;;;;;;;;;;4971866;28;20417;-77
2022/10/18 06:43:14;;;;;;;14.07;6.85;;;;;;;;;;4972106;28;20051;-79
2022/10/18 06:45:40;;;;;;;12.10;6.55;;;;;;;;;;4973006;28;20051;-78
2022/10/18 06:48:06;;;;;;;16.58;7.55;;;;;;;;;;4971782;28;20049;-79
2022/10/18 06:50:32;;;;;;;13.68;6.60;;;;;;;;;;4954129;28;20231;-82
2022/10/18 06:52:58;;;;;;;12.85;6.40;;;;;;;;;;4953728;28;20454;-77
2022/10/18 06:55:24;;;;;;;10.13;6.40;;;;;;;;;;4950986;28;20094;-79
2022/10/18 06:57:50;;;;;;;13.85;6.15;;;;;;;;;;4952164;28;20131;-79
2022/10/18 07:00:16;;;;;;;13.07;6.15;;;;;;;;;;4951826;28;20047;-79
2022/10/18 07:02:42;;;;;;;13.52;6.43;;;;;;;;;;4952998;29;20051;-79
2022/10/18 07:05:08;;;;;;;19.15;6.40;;;;;;;;;;4971010;28;20038;-79
2022/10/18 07:07:34;;;;;;;13.63;6.47;;;;;;;;;;4974092;28;20144;-79
2022/10/18 07:10:00;;;;;;;13.23;6.35;;;;;;;;;;4974496;28;20050;-78
2022/10/18 07:12:26;;;;;;;13.77;5.85;;;;;;;;;;4974496;28;20050;-79
2022/10/18 07:14:53;;;;;;;15.98;5.63;;;;;;;;;;4974484;28;20043;-79
2022/10/18 07:17:20;;;;;;;13.07;5.60;;;;;;;;;;4974190;28;20517;-79
2022/10/18 07:19:46;;;;;;;13.00;5.82;;;;;;;;;;4974276;28;20038;-79
2022/10/18 07:22:12;;;;;;;16.70;5.95;;;;;;;;;;4974344;28;20054;-79
2022/10/18 07:24:38;;;;;;;11.95;5.00;;;;;;;;;;4973993;28;20157;-79
2022/10/18 07:27:04;;;;;;;13.02;6.05;;;;;;;;;;4974374;28;20121;-79
2022/10/18 07:29:30;;;;;;;9.70;4.82;;;;;;;;;;4965454;28;20055;-79
2022/10/18 07:31:57;;;;;;;13.45;5.15;;;;;;;;;;4937783;29;20055;-79
2022/10/18 07:34:23;;;;;;;11.82;5.20;;;;;;;;;;4954666;29;20459;-79
2022/10/18 07:36:49;;;;;;;10.30;4.70;;;;;;;;;;4954913;28;20043;-79
2022/10/18 07:39:15;;;;;;;16.20;4.75;;;;;;;;;;4961046;28;20043;-79
2022/10/18 07:41:41;;;;;;;13.63;5.00;;;;;;;;;;4974151;28;20053;-79
2022/10/18 07:44:07;;;;;;;11.85;4.90;;;;;;;;;;4974154;28;20042;-79
2022/10/18 07:46:34;;;;;;;10.90;4.13;;;;;;;;;;4968877;28;20039;-79
2022/10/18 07:49:00;;;;;;;12.75;4.70;;;;;;;;;;4954665;29;20233;-79
2022/10/18 07:51:26;;;;;;;11.93;4.25;;;;;;;;;;4954343;28;20445;-79
2022/10/18 07:53:53;;;;;;;14.98;4.47;;;;;;;;;;4954707;28;20047;-79
2022/10/18 07:56:20;;;;;;;8.02;4.00;;;;;;;;;;4954673;28;20406;-79
2022/10/18 07:58:47;;;;;;;12.43;3.90;;;;;;;;;;4954547;28;20487;-79
2022/10/18 08:01:13;;;;;;;14.02;4.10;;;;;;;;;;4958770;28;20035;-79
2022/10/18 08:03:40;;;;;;;13.15;4.05;;;;;;;;;;4973792;28;20099;-79
2022/10/18 08:06:10;;;;;;;21.60;4.78;;;;;;;;;;4973748;28;20043;-79
2022/10/18 08:08:37;;;;;;;9.20;4.30;;;;;;;;;;4972644;28;20047;-79
2022/10/18 08:11:07;;;;;;;11.90;4.45;;;;;;;;;;4954249;29;20384;-79
2022/10/18 08:13:33;;;;;;;11.90;4.35;;;;;;;;;;4954338;29;20048;-79
2022/10/18 08:16:01;;;;;;;12.32;4.20;;;;;;;;;;4954267;28;20521;-79
2022/10/18 08:18:27;;;;;;;11.70;4.13;;;;;;;;;;4953785;29;20044;-79
2022/10/18 08:20:53;;;;;;;9.80;4.07;;;;;;;;;;4936759;29;20047;-79
2022/10/18 08:23:19;;;;;;;12.57;4.25;;;;;;;;;;4954015;28;20406;-79
2022/10/18 08:25:45;;;;;;;8.40;3.47;;;;;;;;;;4953849;29;20055;-79
2022/10/18 08:28:12;;;;;;;11.30;3.95;;;;;;;;;;4954060;28;20059;-79
2022/10/18 08:30:39;;;;;;;9.07;3.83;;;;;;;;;;4954061;29;20043;-79
2022/10/18 08:33:05;;;;;;;13.52;4.70;;;;;;;;;;4954796;28;20044;-79
2022/10/18 08:35:31;;;;;;;14.15;4.53;;;;;;;;;;4954276;28;20051;-79
2022/10/18 08:37:58;;;;;;;14.10;3.90;;;;;;;;;;4953813;28;20109;-79
2022/10/18 08:40:26;;;;;;;15.70;4.65;;;;;;;;;;4954012;29;20101;-79
2022/10/18 08:42:56;;;;;;;10.18;4.05;;;;;;;;;;4965531;28;20456;-79
2022/10/18 08:45:22;;;;;;;10.55;3.55;;;;;;;;;;4973125;28;20054;-79
2022/10/18 08:47:50;;;;;;;13.32;4.60;;;;;;;;;;4973032;28;20042;-79
2022/10/18 08:50:20;;;;;;;12.20;4.30;;;;;;;;;;4973056;28;20047;-79
2022/10/18 08:52:56;;;;;;;17.73;4.32;;;;;;;;;;4973085;28;20501;-79
2022/10/18 08:55:25;;;;;;;14.60;3.65;;;;;;;;;;4973009;28;20107;-80
2022/10/18 08:57:51;;;;;;;17.67;4.40;;;;;;;;;;4972902;28;20054;-80
2022/10/18 09:00:19;;;;;;;10.63;3.35;;;;;;;;;;4972881;28;20043;-79
2022/10/18 09:02:51;;;;;;;14.45;4.63;;;;;;;;;;4958604;28;20051;-79
2022/10/18 09:05:17;;;;;;;15.38;3.63;;;;;;;;;;4954140;29;20084;-80
2022/10/18 09:07:52;;;;;;;11.38;3.30;;;;;;;;;;4953542;29;20062;-79
2022/10/18 09:10:18;;;;;;;14.40;4.05;;;;;;;;;;4953513;29;20047;-79
2022/10/18 09:12:52;;;;;;;10.10;3.28;;;;;;;;;;4953408;29;20039;-79
2022/10/18 09:15:37;;;;;;;9.68;3.20;;;;;;;;;;4953411;29;20047;-79
2022/10/18 09:18:03;;;;;;;10.07;2.80;;;;;;;;;;4954136;29;20121;-79
2022/10/18 09:20:34;;;;;;;10.63;3.58;;;;;;;;;;4955822;29;20455;-80
2022/10/18 09:23:15;;;;;;;12.15;3.28;;;;;;;;;;4955663;29;20047;-80
2022/10/18 09:25:45;;;;;;;10.05;2.67;;;;;;;;;;4954956;28;20066;-80
2022/10/18 09:28:16;;;;;;;16.95;2.90;;;;;;;;;;4972031;28;20047;-80
2022/10/18 09:31:00;;;;;;;11.05;3.58;;;;;;;;;;4972198;28;20100;-80
2022/10/18 09:33:42;;;;;;;11.10;3.33;;;;;;;;;;4972539;28;20118;-80
2022/10/18 09:36:10;;;;;;;14.15;2.83;;;;;;;;;;4965397;28;20077;-80
2022/10/18 09:38:44;;;;;;;10.07;2.75;;;;;;;;;;4952647;29;20410;-80
2022/10/18 09:41:13;;;;;;;12.57;2.70;;;;;;;;;;4952937;29;20105;-80
2022/10/18 09:43:51;;;;;;;13.68;2.40;;;;;;;;;;4953000;29;20058;-80
2022/10/18 09:46:18;;;;;;;14.40;3.10;;;;;;;;;;4951490;29;20509;-80
2022/10/18 09:49:14;;;;;;;11.68;2.80;;;;;;;;;;4952978;29;20051;-80
2022/10/18 09:51:41;;;;;;;13.30;3.00;;;;;;;;;;4946035;28;20120;-78
2022/10/18 09:54:16;;;;;;;10.60;2.95;;;;;;;;;;4952859;28;20541;-78
2022/10/18 09:56:48;;;;;;;9.13;2.80;;;;;;;;;;4951686;28;20406;-78
2022/10/18 09:59:27;;;;;;;12.05;2.40;;;;;;;;;;4954083;28;20485;-79
2022/10/18 10:01:53;;;;;;;10.95;2.65;;;;;;;;;;4954616;28;20055;-79
2022/10/18 10:04:19;;;;;;;10.88;2.42;;;;;;;;;;4968505;28;20071;-78
2022/10/18 10:06:52;;;;;;;19.90;2.88;;;;;;;;;;4952634;28;20043;-79
2022/10/18 10:09:24;;;;;;;8.73;2.55;;;;;;;;;;4952656;28;20074;-77
2022/10/18 10:11:51;;;;;;;11.00;3.35;;;;;;;;;;4953396;28;20039;-77
2022/10/18 10:14:22;;;;;;;8.80;2.80;;;;;;;;;;4952651;28;20132;-78
2022/10/18 10:16:51;;;;;;;9.05;2.65;;;;;;;;;;4952871;28;20051;-80
2022/10/18 10:19:26;;;;;;;7.78;2.55;;;;;;;;;;4952490;28;20053;-77
2022/10/18 10:21:57;;;;;;;13.30;3.95;;;;;;;;;;4952422;28;20124;-78
2022/10/18 10:24:25;;;;;;;9.85;2.72;;;;;;;;;;4953222;28;20110;-80
2022/10/18 10:26:58;;;;;;;14.15;2.75;;;;;;;;;;4961775;28;20417;-81
2022/10/18 10:29:47;;;;;;;10.95;2.92;;;;;;;;;;4961013;28;20105;-78
2022/10/18 10:32:15;;;;;;;8.65;2.92;;;;;;;;;;4952659;29;20047;-77
2022/10/18 10:34:41;;;;;;;11.10;2.90;;;;;;;;;;4955276;29;20051;-77
2022/10/18 10:37:25;;;;;;;9.80;2.72;;;;;;;;;;4952288;29;20047;-77
2022/10/18 10:40:12;;;;;;;11.52;2.97;;;;;;;;;;4952725;28;20043;-77
2022/10/18 10:42:48;;;;;;;8.48;2.35;;;;;;;;;;4955842;28;20057;-78
2022/10/18 10:45:14;;;;;;;11.82;2.83;;;;;;;;;;4961445;28;20066;-77
2022/10/18 10:47:40;;;;;;;10.88;2.65;;;;;;;;;;4974990;28;20051;-77
2022/10/18 10:50:11;;;;;;;12.68;2.90;;;;;;;;;;4958206;28;20058;-77
2022/10/18 10:52:39;;;;;;;7.32;2.45;;;;;;;;;;4955200;29;20508;-78
2022/10/18 10:55:06;;;;;;;12.73;2.72;;;;;;;;;;4961297;28;20043;-78
2022/10/18 10:57:32;;;;;;;9.52;2.50;;;;;;;;;;4974796;28;20043;-78
2022/10/18 10:59:59;;;;;;;12.02;2.97;;;;;;;;;;4974819;28;20069;-78
2022/10/18 11:02:33;;;;;;;9.68;2.60;;;;;;;;;;4974428;28;20387;-78
2022/10/18 11:05:17;;;;;;;9.43;2.45;;;;;;;;;;4957053;28;20486;-78
2022/10/18 11:07:47;;;;;;;9.02;2.80;;;;;;;;;;4955933;28;20051;-78
2022/10/18 11:10:14;;;;;;;17.38;2.88;;;;;;;;;;4956197;28;20043;-77
2022/10/18 11:12:40;;;;;;;7.72;3.03;;;;;;;;;;4959866;28;20081;-78
2022/10/18 11:15:27;;;;;;;9.73;3.15;;;;;;;;;;4966933;28;20090;-78
2022/10/18 11:17:53;;;;;;;9.43;2.40;;;;;;;;;;4964458;28;20062;-79
2022/10/18 11:20:25;;;;;;;7.35;2.40;;;;;;;;;;4958116;28;20043;-78
2022/10/18 11:22:59;;;;;;;7.88;2.20;;;;;;;;;;4964474;28;20059;-76
2022/10/18 11:25:27;;;;;;;9.50;2.40;;;;;;;;;;4971952;28;20054;-76
2022/10/18 11:27:53;;;;;;;10.48;2.60;;;;;;;;;;4955758;28;20122;-77
2022/10/18 11:30:38;;;;;;;14.98;3.33;;;;;;;;;;4954897;28;20178;-76
2022/10/18 11:33:22;;;;;;;12.70;3.22;;;;;;;;;;4961910;28;20043;-76
2022/10/18 11:36:04;;;;;;;10.52;2.90;;;;;;;;;;4969387;28;20088;-76
2022/10/18 11:38:30;;;;;;;8.55;2.83;;;;;;;;;;4955314;28;20046;-76
2022/10/18 11:41:11;;;;;;;8.95;2.58;;;;;;;;;;4954682;28;20043;-77
2022/10/18 11:43:51;;;;;;;11.55;2.75;;;;;;;;;;4961245;28;20099;-77
2022/10/18 11:46:20;;;;;;;9.88;2.75;;;;;;;;;;4971346;28;20047;-77
2022/10/18 11:48:46;;;;;;;12.00;2.70;;;;;;;;;;4953460;28;20043;-77
2022/10/18 11:51:18;;;;;;;7.97;2.65;;;;;;;;;;4962847;28;20045;-77
2022/10/18 11:53:44;;;;;;;10.88;2.90;;;;;;;;;;4964977;28;20054;-78
2022/10/18 11:56:16;;;;;;;10.30;2.67;;;;;;;;;;4971898;28;20099;-76
2022/10/18 11:58:42;;;;;;;10.25;2.55;;;;;;;;;;4954085;29;20047;-76
2022/10/18 12:01:17;;;;;;;6.85;2.30;;;;;;;;;;4954549;28;20039;-76
2022/10/18 12:03:53;;;;;;;8.30;3.07;;;;;;;;;;4954065;29;20403;-76
2022/10/18 12:06:21;;;;;;;15.10;3.63;;;;;;;;;;4954520;29;20086;-76
2022/10/18 12:08:54;;;;;;;9.18;2.50;;;;;;;;;;4956577;28;20105;-76
2022/10/18 12:11:26;;;;;;;8.45;3.05;;;;;;;;;;4967913;28;20453;-76
2022/10/18 12:13:57;;;;;;;9.80;2.53;;;;;;;;;;4957127;28;20051;-77
2022/10/18 12:16:24;;;;;;;12.63;3.08;;;;;;;;;;4964902;28;20547;-77
2022/10/18 12:18:55;;;;;;;6.60;2.08;;;;;;;;;;4972974;28;22013;-77
2022/10/18 12:21:23;;;;;;;9.50;2.72;;;;;;;;;;4957552;28;20184;-76
2022/10/18 12:23:52;;;;;;;9.57;2.50;;;;;;;;;;4957187;28;20054;-76
2022/10/18 12:26:18;;;;;;;9.55;2.60;;;;;;;;;;4967249;28;20111;-76
2022/10/18 12:28:53;;;;;;;8.32;2.55;;;;;;;;;;4971821;28;20053;-77
2022/10/18 12:31:22;;;;;;;7.50;2.33;;;;;;;;;;4968872;28;20047;-76
2022/10/18 12:33:49;;;;;;;9.68;2.63;;;;;;;;;;4962520;28;20039;-76
2022/10/18 12:36:18;;;;;;;11.40;2.92;;;;;;;;;;4956002;28;20514;-76
2022/10/18 12:38:45;;;;;;;7.85;2.28;;;;;;;;;;4968134;28;20043;-76
2022/10/18 12:41:24;;;;;;;9.88;2.75;;;;;;;;;;4955413;28;20126;-80
2022/10/18 12:43:51;;;;;;;8.43;2.20;;;;;;;;;;4955019;29;20047;-84
2022/10/18 12:46:17;;;;;;;6.45;2.25;;;;;;;;;;4956307;28;20215;-79
2022/10/18 12:48:44;;;;;;;8.90;3.35;;;;;;;;;;4966426;28;20050;-79
2022/10/18 12:51:16;;;;;;;9.90;2.70;;;;;;;;;;4971956;28;20039;-79
2022/10/18 12:53:46;;;;;;;7.95;2.60;;;;;;;;;;4970352;28;20480;-79
2022/10/18 12:56:28;;;;;;;8.18;2.33;;;;;;;;;;4969977;28;20106;-79
2022/10/18 12:59:15;;;;;;;7.28;2.40;;;;;;;;;;4973514;28;20050;-79
2022/10/18 13:01:51;;;;;;;7.80;2.55;;;;;;;;;;4953923;28;20063;-79
2022/10/18 13:04:26;;;;;;;9.25;2.70;;;;;;;;;;4953880;28;20066;-79
2022/10/18 13:06:58;;;;;;;10.57;2.67;;;;;;;;;;4954275;28;20089;-79
2022/10/18 13:09:29;;;;;;;7.38;2.45;;;;;;;;;;4970640;28;20039;-77
2022/10/18 13:12:15;;;;;;;9.50;2.75;;;;;;;;;;4964263;28;20047;-76
2022/10/18 13:14:53;;;;;;;6.80;2.45;;;;;;;;;;4983374;28;20109;-78
2022/10/18 13:17:41;;;;;;;10.85;2.63;;;;;;;;;;4953450;28;20055;-77
2022/10/18 13:20:24;;;;;;;10.32;2.50;;;;;;;;;;4970723;28;20050;-77
2022/10/18 13:23:02;;;;;;;11.63;2.55;;;;;;;;;;4954725;28;20046;-76
2022/10/18 13:25:31;;;;;;;8.02;2.60;;;;;;;;;;4969315;28;20116;-80
2022/10/18 13:27:57;;;;;;;7.72;2.28;;;;;;;;;;4972684;28;20077;-78
2022/10/18 13:30:32;;;;;;;9.57;2.65;;;;;;;;;;4966034;28;20351;-78
2022/10/18 13:33:13;;;;;;;5.95;2.10;;;;;;;;;;4967796;28;20058;-79
2022/10/18 13:35:51;;;;;;;6.93;2.53;;;;;;;;;;4952975;28;20079;-79
2022/10/18 13:38:40;;;;;;;11.00;2.90;;;;;;;;;;4953079;28;20039;-78
2022/10/18 13:41:08;;;;;;;8.65;2.80;;;;;;;;;;4947634;28;20066;-78
2022/10/18 13:43:52;;;;;;;6.93;2.15;;;;;;;;;;4953367;28;20043;-79
2022/10/18 13:46:21;;;;;;;11.65;2.70;;;;;;;;;;4952879;28;20046;-78
2022/10/18 13:48:48;;;;;;;7.65;2.22;;;;;;;;;;4954132;28;20047;-79
2022/10/18 13:51:32;;;;;;;5.30;2.35;;;;;;;;;;4971224;28;20051;-79
2022/10/18 13:54:04;;;;;;;11.43;3.15;;;;;;;;;;4964912;28;20100;-78
2022/10/18 13:56:37;;;;;;;14.43;2.72;;;;;;;;;;4953044;28;20047;-78
2022/10/18 13:59:03;;;;;;;6.22;2.67;;;;;;;;;;4951622;28;20086;-78
2022/10/18 14:01:36;;;;;;;10.50;2.70;;;;;;;;;;4952746;28;20043;-78
2022/10/18 14:04:21;;;;;;;6.82;2.20;;;;;;;;;;4952803;28;20054;-79
2022/10/18 14:06:47;;;;;;;10.52;2.72;;;;;;;;;;4953239;28;20050;-79
2022/10/18 14:09:19;;;;;;;4.45;2.10;;;;;;;;;;4954498;29;20083;-78
2022/10/18 14:12:04;;;;;;;5.90;2.10;;;;;;;;;;4956004;28;20047;-80
2022/10/18 14:14:43;;;;;;;9.18;2.55;;;;;;;;;;4955136;28;20047;-78
2022/10/18 14:17:27;;;;;;;8.18;2.58;;;;;;;;;;4957987;28;20081;-79
2022/10/18 14:19:54;;;;;;;7.35;2.00;;;;;;;;;;4951568;28;20043;-77
2022/10/18 14:22:40;;;;;;;7.28;2.22;;;;;;;;;;4954702;28;20113;-81
2022/10/18 14:25:18;;;;;;;4.07;1.90;;;;;;;;;;4945167;28;20470;-78
2022/10/18 14:27:45;;;;;;;6.07;2.17;;;;;;;;;;4965273;28;20141;-78
2022/10/18 14:30:16;;;;;;;4.00;2.25;;;;;;;;;;4970866;28;20054;-78
2022/10/18 14:32:44;;;;;;;6.03;1.98;;;;;;;;;;4962603;28;20540;-79
2022/10/18 14:35:24;;;;;;;8.15;2.30;;;;;;;;;;4952677;28;20058;-78
2022/10/18 14:37:51;;;;;;;8.48;2.83;;;;;;;;;;4957234;28;20043;-77
2022/10/18 14:40:31;;;;;;;7.90;2.10;;;;;;;;;;4973437;28;20039;-77
2022/10/18 14:43:01;;;;;;;11.57;2.60;;;;;;;;;;4958272;28;20431;-77